PWSweather.com
Personal Weather Stations
Station Observations
WD4JKH
Forsyth, GA 31029

Forsyth, GA 31029

Lat: 33.033225, Lon: -83.927995

Elevation: 709

Station Type: Davis Vantage VUE

High Low Average
Temperature 64.7°F18.2°C 46.7°F8.2°C 57.4°F14.1°C
Dew Point 62.7°F17.1°C 40.2°F4.6°C 53.6°F12.0°C
Winds 14.0 mph 22.5 kmh Calm Calm 5.0 mph S8.0 kmh S
Wind Gusts 26.0 mph41.8 kmh 1.0 mph1.6 kmh 13.0 mph20.9 kmh
Humidity 99% 61% 88%
Pressure 29.99 in1015.6 mb 29.67 in1004.7 mb -
Precipitation 2.58 in65.5 mm - -
Hour Temp Dew Point Humidity Winds Wind Gusts Pressure Precip Precip Rate Daily Precip Total
12:02 AM 56.1°F13.4°C 55.8°F13.2°C 99% Calm Calm 2.0 mph3.2 kmh 29.99 in1015.6 mb 0.00 in0.0 mm 0.00 in0.0 mm 0.11 in2.8 mm
12:07 AM 56.1°F13.4°C 55.8°F13.2°C 99% Calm Calm 2.0 mph3.2 kmh 29.99 in1015.6 mb 0.00 in0.0 mm 0.00 in0.0 mm 0.11 in2.8 mm
12:12 AM 56.2°F13.4°C 55.9°F13.3°C 99% Calm Calm 1.0 mph1.6 kmh 29.99 in1015.6 mb 0.00 in0.0 mm 0.00 in0.0 mm 0.11 in2.8 mm
12:17 AM 56.2°F13.4°C 55.9°F13.3°C 99% Calm Calm -- 29.99 in1015.6 mb 0.00 in0.0 mm 0.00 in0.0 mm 0.11 in2.8 mm
12:22 AM 56.3°F13.5°C 56.0°F13.3°C 99% Calm Calm -- 29.99 in1015.6 mb 0.00 in0.0 mm 0.00 in0.0 mm 0.11 in2.8 mm
12:27 AM 56.3°F13.5°C 56.0°F13.3°C 99% Calm Calm -- 29.99 in1015.6 mb 0.00 in0.0 mm 0.00 in0.0 mm 0.11 in2.8 mm
12:32 AM 56.3°F13.5°C 56.0°F13.3°C 99% Calm Calm -- 29.99 in1015.6 mb 0.00 in0.0 mm 0.00 in0.0 mm 0.11 in2.8 mm
12:37 AM 56.3°F13.5°C 56.0°F13.3°C 99% Calm Calm -- 29.99 in1015.6 mb 0.00 in0.0 mm 0.00 in0.0 mm 0.11 in2.8 mm
12:41 AM 56.3°F13.5°C 56.0°F13.3°C 99% Calm Calm -- 29.99 in1015.6 mb 0.00 in0.0 mm 0.00 in0.0 mm 0.11 in2.8 mm
12:46 AM 56.3°F13.5°C 56.0°F13.3°C 99% 1.0 mph NE1.6 kmh NE 1.0 mph1.6 kmh 29.99 in1015.6 mb 0.01 in0.3 mm 0.12 in3.0 mm 0.12 in3.0 mm
12:50 AM 56.3°F13.5°C 56.0°F13.3°C 99% 1.0 mph NE1.6 kmh NE 1.0 mph1.6 kmh 29.99 in1015.6 mb 0.01 in0.3 mm 0.00 in0.0 mm 0.12 in3.0 mm
12:56 AM 56.3°F13.5°C 56.0°F13.3°C 99% 1.0 mph NE1.6 kmh NE 1.0 mph1.6 kmh 29.99 in1015.6 mb 0.01 in0.3 mm 0.00 in0.0 mm 0.12 in3.0 mm
01:01 AM 56.2°F13.4°C 55.9°F13.3°C 99% Calm Calm 1.0 mph1.6 kmh 29.99 in1015.6 mb 0.01 in0.3 mm 0.00 in0.0 mm 0.12 in3.0 mm
01:06 AM 56.2°F13.4°C 55.9°F13.3°C 99% 1.0 mph NNE1.6 kmh NNE 1.0 mph1.6 kmh 29.99 in1015.6 mb 0.02 in0.5 mm 0.12 in3.0 mm 0.01 in0.3 mm
01:11 AM 56.1°F13.4°C 55.8°F13.2°C 99% 1.0 mph NNE1.6 kmh NNE 1.0 mph1.6 kmh 29.99 in1015.6 mb 0.03 in0.8 mm 0.12 in3.0 mm 0.02 in0.5 mm
01:16 AM 56.2°F13.4°C 55.9°F13.3°C 99% 1.1 mph NE1.8 kmh NE 2.0 mph3.2 kmh 29.98 in1015.2 mb 0.03 in0.8 mm 0.00 in0.0 mm 0.02 in0.5 mm
01:21 AM 56.1°F13.4°C 55.8°F13.2°C 99% Calm Calm 2.0 mph3.2 kmh 29.98 in1015.2 mb 0.03 in0.8 mm 0.00 in0.0 mm 0.03 in0.8 mm
01:26 AM 56.1°F13.4°C 55.8°F13.2°C 99% 1.0 mph E1.6 kmh E 2.0 mph3.2 kmh 29.98 in1015.2 mb 0.05 in1.3 mm 0.24 in6.1 mm 0.04 in1.0 mm
01:31 AM 56.1°F13.4°C 55.8°F13.2°C 99% 1.8 mph ENE2.9 kmh ENE 3.0 mph4.8 kmh 29.98 in1015.2 mb 0.07 in1.8 mm 0.24 in6.1 mm 0.06 in1.5 mm
01:36 AM 56.1°F13.4°C 55.8°F13.2°C 99% 1.0 mph ENE1.6 kmh ENE 3.0 mph4.8 kmh 29.98 in1015.2 mb 0.07 in1.8 mm 0.00 in0.0 mm 0.06 in1.5 mm
01:41 AM 56.1°F13.4°C 55.8°F13.2°C 99% Calm Calm 3.0 mph4.8 kmh 29.98 in1015.2 mb 0.08 in2.0 mm 0.12 in3.0 mm 0.07 in1.8 mm
01:46 AM 56.1°F13.4°C 55.8°F13.2°C 99% 1.4 mph NE2.3 kmh NE 3.0 mph4.8 kmh 29.98 in1015.2 mb 0.07 in1.8 mm 0.00 in0.0 mm 0.07 in1.8 mm
01:51 AM 56.1°F13.4°C 55.8°F13.2°C 99% 1.5 mph ENE2.4 kmh ENE 3.0 mph4.8 kmh 29.98 in1015.2 mb 0.07 in1.8 mm 0.00 in0.0 mm 0.07 in1.8 mm
01:56 AM 56.1°F13.4°C 55.8°F13.2°C 99% 1.6 mph ENE2.6 kmh ENE 3.0 mph4.8 kmh 29.98 in1015.2 mb 0.08 in2.0 mm 0.12 in3.0 mm 0.08 in2.0 mm
02:01 AM 56.1°F13.4°C 55.8°F13.2°C 99% 1.3 mph NE2.1 kmh NE 3.0 mph4.8 kmh 29.98 in1015.2 mb 0.08 in2.0 mm 0.00 in0.0 mm 0.08 in2.0 mm
02:06 AM 56.1°F13.4°C 55.8°F13.2°C 99% 1.7 mph ENE2.7 kmh ENE 4.0 mph6.4 kmh 29.98 in1015.2 mb 0.08 in2.0 mm 0.00 in0.0 mm 0.09 in2.3 mm
02:11 AM 56.1°F13.4°C 55.8°F13.2°C 99% 2.5 mph ENE4.0 kmh ENE 5.0 mph8.0 kmh 29.98 in1015.2 mb 0.08 in2.0 mm 0.00 in0.0 mm 0.10 in2.5 mm
02:16 AM 56.1°F13.4°C 55.8°F13.2°C 99% 2.0 mph NE3.2 kmh NE 5.0 mph8.0 kmh 29.98 in1015.2 mb 0.08 in2.0 mm 0.00 in0.0 mm 0.10 in2.5 mm
02:21 AM 56.0°F13.3°C 55.7°F13.2°C 99% 1.8 mph NE2.9 kmh NE 5.0 mph8.0 kmh 29.98 in1015.2 mb 0.09 in2.3 mm 0.12 in3.0 mm 0.12 in3.0 mm
02:26 AM 56.0°F13.3°C 55.7°F13.2°C 99% 2.7 mph NE4.3 kmh NE 6.0 mph9.7 kmh 29.97 in1014.9 mb 0.09 in2.3 mm 0.00 in0.0 mm 0.13 in3.3 mm
02:31 AM 55.9°F13.3°C 55.6°F13.1°C 99% 2.7 mph NE4.3 kmh NE 6.0 mph9.7 kmh 29.97 in1014.9 mb 0.08 in2.0 mm 0.00 in0.0 mm 0.14 in3.6 mm
02:36 AM 55.9°F13.3°C 55.6°F13.1°C 99% 2.7 mph ENE4.3 kmh ENE 6.0 mph9.7 kmh 29.97 in1014.9 mb 0.09 in2.3 mm 0.12 in3.0 mm 0.15 in3.8 mm
02:41 AM 55.9°F13.3°C 55.6°F13.1°C 99% 2.8 mph NE4.5 kmh NE 8.0 mph12.9 kmh 29.96 in1014.6 mb 0.08 in2.0 mm 0.00 in0.0 mm 0.15 in3.8 mm
02:46 AM 55.9°F13.3°C 55.6°F13.1°C 99% 3.2 mph ENE5.1 kmh ENE 8.0 mph12.9 kmh 29.96 in1014.6 mb 0.09 in2.3 mm 0.12 in3.0 mm 0.16 in4.1 mm
02:51 AM 55.9°F13.3°C 55.6°F13.1°C 99% 3.7 mph NE6.0 kmh NE 8.0 mph12.9 kmh 29.96 in1014.6 mb 0.09 in2.3 mm 0.00 in0.0 mm 0.16 in4.1 mm
02:56 AM 55.9°F13.3°C 55.6°F13.1°C 99% 2.7 mph NE4.3 kmh NE 8.0 mph12.9 kmh 29.95 in1014.2 mb 0.09 in2.3 mm 0.00 in0.0 mm 0.17 in4.3 mm
03:01 AM 55.9°F13.3°C 55.6°F13.1°C 99% 3.0 mph NE4.8 kmh NE 8.0 mph12.9 kmh 29.95 in1014.2 mb 0.08 in2.0 mm 0.00 in0.0 mm 0.17 in4.3 mm
03:06 AM 55.9°F13.3°C 55.6°F13.1°C 99% 3.1 mph NE5.0 kmh NE 8.0 mph12.9 kmh 29.95 in1014.2 mb 0.09 in2.3 mm 0.12 in3.0 mm 0.18 in4.6 mm
03:11 AM 55.9°F13.3°C 55.6°F13.1°C 99% 1.9 mph ENE3.1 kmh ENE 7.0 mph11.3 kmh 29.94 in1013.9 mb 0.09 in2.3 mm 0.00 in0.0 mm 0.19 in4.8 mm
03:16 AM 55.9°F13.3°C 55.6°F13.1°C 99% 2.6 mph NE4.2 kmh NE 7.0 mph11.3 kmh 29.94 in1013.9 mb 0.10 in2.5 mm 0.12 in3.0 mm 0.20 in5.1 mm
03:21 AM 55.9°F13.3°C 55.6°F13.1°C 99% 1.5 mph NE2.4 kmh NE 7.0 mph11.3 kmh 29.94 in1013.9 mb 0.10 in2.5 mm 0.00 in0.0 mm 0.22 in5.6 mm
03:26 AM 55.9°F13.3°C 55.6°F13.1°C 99% 1.9 mph ENE3.1 kmh ENE 5.0 mph8.0 kmh 29.94 in1013.9 mb 0.10 in2.5 mm 0.00 in0.0 mm 0.23 in5.8 mm
03:31 AM 55.9°F13.3°C 55.6°F13.1°C 99% 2.3 mph ENE3.7 kmh ENE 5.0 mph8.0 kmh 29.94 in1013.9 mb 0.11 in2.8 mm 0.12 in3.0 mm 0.25 in6.4 mm
03:36 AM 55.9°F13.3°C 55.6°F13.1°C 99% 2.6 mph E4.2 kmh E 5.0 mph8.0 kmh 29.95 in1014.2 mb 0.12 in3.0 mm 0.12 in3.0 mm 0.27 in6.9 mm
03:41 AM 55.9°F13.3°C 55.6°F13.1°C 99% 2.4 mph E3.9 kmh E 4.0 mph6.4 kmh 29.94 in1013.9 mb 0.14 in3.6 mm 0.24 in6.1 mm 0.29 in7.4 mm
03:46 AM 55.9°F13.3°C 55.6°F13.1°C 99% 2.2 mph E3.5 kmh E 4.0 mph6.4 kmh 29.94 in1013.9 mb 0.17 in4.3 mm 0.36 in9.1 mm 0.33 in8.4 mm
03:51 AM 55.9°F13.3°C 55.6°F13.1°C 99% 1.9 mph ENE3.1 kmh ENE 4.0 mph6.4 kmh 29.93 in1013.5 mb 0.19 in4.8 mm 0.24 in6.1 mm 0.35 in8.9 mm
03:56 AM 55.9°F13.3°C 55.6°F13.1°C 99% 1.2 mph ENE1.9 kmh ENE 4.0 mph6.4 kmh 29.93 in1013.5 mb 0.20 in5.1 mm 0.12 in3.0 mm 0.37 in9.4 mm
04:01 AM 56.0°F13.3°C 55.7°F13.2°C 99% 1.2 mph E1.9 kmh E 4.0 mph6.4 kmh 29.93 in1013.5 mb 0.21 in5.3 mm 0.01 in0.3 mm 0.38 in9.7 mm
04:06 AM 56.0°F13.3°C 55.7°F13.2°C 99% 1.4 mph ENE2.3 kmh ENE 4.0 mph6.4 kmh 29.94 in1013.9 mb 0.21 in5.3 mm 0.00 in0.0 mm 0.39 in9.9 mm
04:11 AM 56.0°F13.3°C 55.7°F13.2°C 99% Calm Calm 4.0 mph6.4 kmh 29.94 in1013.9 mb 0.21 in5.3 mm 0.00 in0.0 mm 0.40 in10.2 mm
04:16 AM 56.1°F13.4°C 55.8°F13.2°C 99% Calm Calm 4.0 mph6.4 kmh 29.94 in1013.9 mb 0.22 in5.6 mm 0.12 in3.0 mm 0.42 in10.7 mm
04:21 AM 56.1°F13.4°C 55.8°F13.2°C 99% 1.0 mph ENE1.6 kmh ENE 2.0 mph3.2 kmh 29.94 in1013.9 mb 0.22 in5.6 mm 0.00 in0.0 mm 0.44 in11.2 mm
04:26 AM 56.1°F13.4°C 55.8°F13.2°C 99% 2.8 mph E4.5 kmh E 4.0 mph6.4 kmh 29.93 in1013.5 mb 0.24 in6.1 mm 0.24 in6.1 mm 0.47 in11.9 mm
04:31 AM 56.1°F13.4°C 55.8°F13.2°C 99% 1.3 mph ENE2.1 kmh ENE 4.0 mph6.4 kmh 29.93 in1013.5 mb 0.23 in5.8 mm 0.00 in0.0 mm 0.48 in12.2 mm
04:36 AM 56.1°F13.4°C 55.8°F13.2°C 99% 2.3 mph NE3.7 kmh NE 4.0 mph6.4 kmh 29.92 in1013.2 mb 0.23 in5.8 mm 0.00 in0.0 mm 0.50 in12.7 mm
04:41 AM 56.1°F13.4°C 55.8°F13.2°C 99% 2.9 mph NE4.7 kmh NE 5.0 mph8.0 kmh 29.92 in1013.2 mb 0.22 in5.6 mm 0.00 in0.0 mm 0.51 in13.0 mm
04:46 AM 56.1°F13.4°C 55.8°F13.2°C 99% 2.9 mph ENE4.7 kmh ENE 5.0 mph8.0 kmh 29.92 in1013.2 mb 0.19 in4.8 mm 0.00 in0.0 mm 0.52 in13.2 mm
04:51 AM 56.1°F13.4°C 55.8°F13.2°C 99% 3.4 mph ENE5.5 kmh ENE 7.0 mph11.3 kmh 29.91 in1012.9 mb 0.18 in4.6 mm 0.00 in0.0 mm 0.53 in13.5 mm
04:56 AM 56.2°F13.4°C 55.9°F13.3°C 99% 2.8 mph ENE4.5 kmh ENE 7.0 mph11.3 kmh 29.91 in1012.9 mb 0.16 in4.1 mm 0.00 in0.0 mm 0.53 in13.5 mm
05:01 AM 56.2°F13.4°C 55.9°F13.3°C 99% 2.5 mph ENE4.0 kmh ENE 7.0 mph11.3 kmh 29.92 in1013.2 mb 0.16 in4.1 mm 0.00 in0.0 mm 0.54 in13.7 mm
05:06 AM 56.2°F13.4°C 55.9°F13.3°C 99% 1.3 mph ENE2.1 kmh ENE 7.0 mph11.3 kmh 29.91 in1012.9 mb 0.16 in4.1 mm 0.00 in0.0 mm 0.55 in14.0 mm
05:11 AM 56.2°F13.4°C 55.9°F13.3°C 99% 3.5 mph NE5.6 kmh NE 7.0 mph11.3 kmh 29.90 in1012.5 mb 0.16 in4.1 mm 0.00 in0.0 mm 0.56 in14.2 mm
05:16 AM 56.2°F13.4°C 55.9°F13.3°C 99% 3.7 mph NE6.0 kmh NE 7.0 mph11.3 kmh 29.90 in1012.5 mb 0.15 in3.8 mm 0.00 in0.0 mm 0.57 in14.5 mm
05:21 AM 56.2°F13.4°C 55.9°F13.3°C 99% 4.2 mph NE6.8 kmh NE 8.0 mph12.9 kmh 29.89 in1012.2 mb 0.14 in3.6 mm 0.00 in0.0 mm 0.58 in14.7 mm
05:26 AM 56.2°F13.4°C 55.9°F13.3°C 99% 3.6 mph NE5.8 kmh NE 8.0 mph12.9 kmh 29.88 in1011.9 mb 0.11 in2.8 mm 0.00 in0.0 mm 0.58 in14.7 mm
05:31 AM 56.1°F13.4°C 55.8°F13.2°C 99% 4.6 mph NE7.4 kmh NE 9.0 mph14.5 kmh 29.87 in1011.5 mb 0.13 in3.3 mm 0.24 in6.1 mm 0.61 in15.5 mm
05:35 AM 56.1°F13.4°C 55.8°F13.2°C 99% 2.8 mph ENE4.5 kmh ENE 9.0 mph14.5 kmh 29.88 in1011.9 mb 0.13 in3.3 mm 0.00 in0.0 mm 0.64 in16.3 mm
05:40 AM 56.1°F13.4°C 55.8°F13.2°C 99% 5.5 mph NE8.9 kmh NE 9.0 mph14.5 kmh 29.87 in1011.5 mb 0.21 in5.3 mm 0.96 in24.4 mm 0.72 in18.3 mm
05:45 AM 56.2°F13.4°C 55.9°F13.3°C 99% 2.1 mph NE3.4 kmh NE 9.0 mph14.5 kmh 29.87 in1011.5 mb 0.25 in6.4 mm 0.48 in12.2 mm 0.77 in19.6 mm
05:50 AM 56.2°F13.4°C 55.9°F13.3°C 99% 2.5 mph ENE4.0 kmh ENE 9.0 mph14.5 kmh 29.87 in1011.5 mb 0.32 in8.1 mm 0.84 in21.3 mm 0.85 in21.6 mm
05:55 AM 56.2°F13.4°C 55.9°F13.3°C 99% 4.0 mph NE6.4 kmh NE 9.0 mph14.5 kmh 29.86 in1011.2 mb 0.40 in10.2 mm 0.96 in24.4 mm 0.93 in23.6 mm
06:00 AM 56.3°F13.5°C 56.0°F13.3°C 99% 1.7 mph NW2.7 kmh NW 8.0 mph12.9 kmh 29.88 in1011.9 mb 0.49 in12.4 mm 0.10 in2.5 mm 1.03 in26.2 mm
06:05 AM 56.2°F13.4°C 55.9°F13.3°C 99% 3.6 mph W5.8 kmh W 10.0 mph16.1 kmh 29.90 in1012.5 mb 0.58 in14.7 mm 1.08 in27.4 mm 1.13 in28.7 mm
06:10 AM 56.2°F13.4°C 55.9°F13.3°C 99% 2.7 mph NE4.3 kmh NE 10.0 mph16.1 kmh 29.88 in1011.9 mb 0.61 in15.5 mm 0.36 in9.1 mm 1.17 in29.7 mm
06:15 AM 56.2°F13.4°C 55.9°F13.3°C 99% 2.7 mph NE4.3 kmh NE 10.0 mph16.1 kmh 29.88 in1011.9 mb 0.61 in15.5 mm 0.00 in0.0 mm 1.18 in30.0 mm
06:20 AM 56.2°F13.4°C 55.9°F13.3°C 99% 2.7 mph NE4.3 kmh NE 10.0 mph16.1 kmh 29.88 in1011.9 mb 0.63 in16.0 mm 0.24 in6.1 mm 1.20 in30.5 mm
06:25 AM 56.2°F13.4°C 55.9°F13.3°C 99% 2.2 mph NE3.5 kmh NE 6.0 mph9.7 kmh 29.88 in1011.9 mb 0.64 in16.3 mm 0.12 in3.0 mm 1.22 in31.0 mm
06:30 AM 56.1°F13.4°C 55.8°F13.2°C 99% 3.3 mph ENE5.3 kmh ENE 6.0 mph9.7 kmh 29.87 in1011.5 mb 0.62 in15.7 mm 0.00 in0.0 mm 1.23 in31.2 mm
06:35 AM 56.1°F13.4°C 55.8°F13.2°C 99% 3.7 mph NE6.0 kmh NE 7.0 mph11.3 kmh 29.87 in1011.5 mb 0.63 in16.0 mm 0.12 in3.0 mm 1.25 in31.8 mm
06:40 AM 56.1°F13.4°C 55.8°F13.2°C 99% 2.2 mph NE3.5 kmh NE 7.0 mph11.3 kmh 29.87 in1011.5 mb 0.54 in13.7 mm 0.00 in0.0 mm 1.26 in32.0 mm
06:45 AM 56.0°F13.3°C 55.7°F13.2°C 99% 1.5 mph NE2.4 kmh NE 7.0 mph11.3 kmh 29.88 in1011.9 mb 0.50 in12.7 mm 0.00 in0.0 mm 1.27 in32.3 mm
06:50 AM 56.1°F13.4°C 55.8°F13.2°C 99% 2.5 mph NE4.0 kmh NE 7.0 mph11.3 kmh 29.87 in1011.5 mb 0.43 in10.9 mm 0.00 in0.0 mm 1.28 in32.5 mm
06:55 AM 56.0°F13.3°C 55.7°F13.2°C 99% 4.8 mph ENE7.7 kmh ENE 7.0 mph11.3 kmh 29.86 in1011.2 mb 0.34 in8.6 mm 0.00 in0.0 mm 1.28 in32.5 mm
07:00 AM 55.9°F13.3°C 55.6°F13.1°C 99% 3.8 mph ENE6.1 kmh ENE 7.0 mph11.3 kmh 29.86 in1011.2 mb 0.25 in6.4 mm 0.00 in0.0 mm 1.28 in32.5 mm
07:05 AM 56.0°F13.3°C 55.7°F13.2°C 99% 1.6 mph ENE2.6 kmh ENE 7.0 mph11.3 kmh 29.86 in1011.2 mb 0.15 in3.8 mm 0.00 in0.0 mm 1.28 in32.5 mm
07:10 AM 56.1°F13.4°C 55.8°F13.2°C 99% 4.4 mph NE7.1 kmh NE 10.0 mph16.1 kmh 29.85 in1010.8 mb 0.14 in3.6 mm 0.00 in0.0 mm 1.31 in33.3 mm
07:15 AM 56.1°F13.4°C 55.8°F13.2°C 99% 1.8 mph NE2.9 kmh NE 10.0 mph16.1 kmh 29.85 in1010.8 mb 0.14 in3.6 mm 0.00 in0.0 mm 1.32 in33.5 mm
07:20 AM 56.1°F13.4°C 55.8°F13.2°C 99% 3.7 mph NE6.0 kmh NE 10.0 mph16.1 kmh 29.85 in1010.8 mb 0.12 in3.0 mm 0.00 in0.0 mm 1.32 in33.5 mm
07:25 AM 56.1°F13.4°C 55.8°F13.2°C 99% 4.7 mph NE7.6 kmh NE 10.0 mph16.1 kmh 29.84 in1010.5 mb 0.11 in2.8 mm 0.00 in0.0 mm 1.33 in33.8 mm
07:30 AM 56.2°F13.4°C 55.9°F13.3°C 99% 3.9 mph ENE6.3 kmh ENE 9.0 mph14.5 kmh 29.84 in1010.5 mb 0.10 in2.5 mm 0.00 in0.0 mm 1.33 in33.8 mm
07:35 AM 56.2°F13.4°C 55.9°F13.3°C 99% 4.0 mph ENE6.4 kmh ENE 9.0 mph14.5 kmh 29.84 in1010.5 mb 0.09 in2.3 mm 0.00 in0.0 mm 1.34 in34.0 mm
07:40 AM 56.2°F13.4°C 55.9°F13.3°C 99% 4.9 mph E7.9 kmh E 9.0 mph14.5 kmh 29.85 in1010.8 mb 0.12 in3.0 mm 0.36 in9.1 mm 1.38 in35.1 mm
07:45 AM 56.2°F13.4°C 55.9°F13.3°C 99% 5.1 mph NE8.2 kmh NE 9.0 mph14.5 kmh 29.85 in1010.8 mb 0.15 in3.8 mm 0.36 in9.1 mm 1.42 in36.1 mm
07:50 AM 56.2°F13.4°C 55.9°F13.3°C 99% 3.5 mph ENE5.6 kmh ENE 9.0 mph14.5 kmh 29.84 in1010.5 mb 0.17 in4.3 mm 0.24 in6.1 mm 1.45 in36.8 mm
07:55 AM 56.2°F13.4°C 55.9°F13.3°C 99% 2.6 mph NE4.2 kmh NE 9.0 mph14.5 kmh 29.83 in1010.2 mb 0.22 in5.6 mm 0.60 in15.2 mm 1.50 in38.1 mm
08:00 AM 56.2°F13.4°C 55.9°F13.3°C 99% 1.6 mph NE2.6 kmh NE 9.0 mph14.5 kmh 29.84 in1010.5 mb 0.25 in6.4 mm 0.03 in0.8 mm 1.53 in38.9 mm
08:05 AM 56.2°F13.4°C 55.9°F13.3°C 99% 4.8 mph ENE7.7 kmh ENE 9.0 mph14.5 kmh 29.83 in1010.2 mb 0.27 in6.9 mm 0.24 in6.1 mm 1.55 in39.4 mm
08:10 AM 56.2°F13.4°C 55.9°F13.3°C 99% 3.9 mph ENE6.3 kmh ENE 9.0 mph14.5 kmh 29.83 in1010.2 mb 0.27 in6.9 mm 0.00 in0.0 mm 1.58 in40.1 mm
08:15 AM 56.2°F13.4°C 55.9°F13.3°C 99% 7.4 mph E11.9 kmh E 11.0 mph17.7 kmh 29.82 in1009.8 mb 0.31 in7.9 mm 0.48 in12.2 mm 1.63 in41.4 mm
08:20 AM 56.3°F13.5°C 56.0°F13.3°C 99% 7.1 mph E11.4 kmh E 15.0 mph24.1 kmh 29.82 in1009.8 mb 0.46 in11.7 mm 1.80 in45.7 mm 1.78 in45.2 mm
08:25 AM 56.3°F13.5°C 56.0°F13.3°C 99% 3.4 mph ENE5.5 kmh ENE 15.0 mph24.1 kmh 29.82 in1009.8 mb 0.51 in13.0 mm 0.60 in15.2 mm 1.84 in46.7 mm
08:30 AM 56.4°F13.6°C 56.1°F13.4°C 99% 4.8 mph E7.7 kmh E 15.0 mph24.1 kmh 29.81 in1009.5 mb 0.54 in13.7 mm 0.36 in9.1 mm 1.87 in47.5 mm
08:35 AM 56.4°F13.6°C 56.1°F13.4°C 99% 3.1 mph E5.0 kmh E 15.0 mph24.1 kmh 29.81 in1009.5 mb 0.56 in14.2 mm 0.24 in6.1 mm 1.90 in48.3 mm
08:40 AM 56.6°F13.7°C 56.3°F13.5°C 99% 4.6 mph E7.4 kmh E 13.0 mph20.9 kmh 29.81 in1009.5 mb 0.56 in14.2 mm 0.00 in0.0 mm 1.94 in49.3 mm
08:45 AM 56.7°F13.7°C 56.4°F13.6°C 99% 4.1 mph E6.6 kmh E 12.0 mph19.3 kmh 29.81 in1009.5 mb 0.55 in14.0 mm 0.00 in0.0 mm 1.97 in50.0 mm
08:50 AM 56.8°F13.8°C 56.5°F13.6°C 99% 7.3 mph E11.7 kmh E 11.0 mph17.7 kmh 29.79 in1008.8 mb 0.55 in14.0 mm 0.00 in0.0 mm 2.00 in50.8 mm
08:55 AM 56.9°F13.8°C 56.6°F13.7°C 99% 7.7 mph E12.4 kmh E 15.0 mph24.1 kmh 29.79 in1008.8 mb 0.53 in13.5 mm 0.00 in0.0 mm 2.04 in51.8 mm
09:00 AM 56.9°F13.8°C 56.6°F13.7°C 99% 9.5 mph E15.3 kmh E 15.0 mph24.1 kmh 29.79 in1008.8 mb 0.53 in13.5 mm 0.00 in0.0 mm 2.06 in52.3 mm
09:05 AM 56.9°F13.8°C 56.6°F13.7°C 99% 6.6 mph E10.6 kmh E 15.0 mph24.1 kmh 29.79 in1008.8 mb 0.53 in13.5 mm 0.00 in0.0 mm 2.08 in52.8 mm
09:10 AM 56.9°F13.8°C 56.6°F13.7°C 99% 6.6 mph E10.6 kmh E 15.0 mph24.1 kmh 29.78 in1008.5 mb 0.52 in13.2 mm 0.00 in0.0 mm 2.10 in53.3 mm
09:15 AM 56.8°F13.8°C 56.5°F13.6°C 99% 4.2 mph E6.8 kmh E 15.0 mph24.1 kmh 29.78 in1008.5 mb 0.48 in12.2 mm 0.00 in0.0 mm 2.11 in53.6 mm
09:20 AM 56.8°F13.8°C 56.5°F13.6°C 99% 5.4 mph ENE8.7 kmh ENE 15.0 mph24.1 kmh 29.78 in1008.5 mb 0.36 in9.1 mm 0.00 in0.0 mm 2.14 in54.4 mm
09:25 AM 56.9°F13.8°C 56.6°F13.7°C 99% 4.8 mph E7.7 kmh E 13.0 mph20.9 kmh 29.79 in1008.8 mb 0.34 in8.6 mm 0.00 in0.0 mm 2.18 in55.4 mm
09:30 AM 57.0°F13.9°C 56.7°F13.7°C 99% 6.8 mph E10.9 kmh E 12.0 mph19.3 kmh 29.79 in1008.8 mb 0.37 in9.4 mm 0.36 in9.1 mm 2.25 in57.2 mm
09:35 AM 57.4°F14.1°C 57.1°F13.9°C 99% 5.2 mph ENE8.4 kmh ENE 12.0 mph19.3 kmh 29.78 in1008.5 mb 0.43 in10.9 mm 0.72 in18.3 mm 2.33 in59.2 mm
09:40 AM 57.2°F14.0°C 56.9°F13.8°C 99% 2.4 mph E3.9 kmh E 12.0 mph19.3 kmh 29.78 in1008.5 mb 0.45 in11.4 mm 0.24 in6.1 mm 2.39 in60.7 mm
09:45 AM 57.2°F14.0°C 56.9°F13.8°C 99% 3.6 mph ENE5.8 kmh ENE 12.0 mph19.3 kmh 29.79 in1008.8 mb 0.45 in11.4 mm 0.00 in0.0 mm 2.42 in61.5 mm
09:50 AM 57.3°F14.1°C 57.0°F13.9°C 99% 1.7 mph E2.7 kmh E 12.0 mph19.3 kmh 29.80 in1009.1 mb 0.43 in10.9 mm 0.00 in0.0 mm 2.43 in61.7 mm
09:55 AM 57.4°F14.1°C 57.1°F13.9°C 99% 1.2 mph ENE1.9 kmh ENE 11.0 mph17.7 kmh 29.79 in1008.8 mb 0.41 in10.4 mm 0.00 in0.0 mm 2.45 in62.2 mm
10:00 AM 57.9°F14.4°C 57.6°F14.2°C 99% 3.2 mph E5.1 kmh E 8.0 mph12.9 kmh 29.79 in1008.8 mb 0.41 in10.4 mm 0.00 in0.0 mm 2.47 in62.7 mm
10:05 AM 58.1°F14.5°C 57.8°F14.3°C 99% 4.3 mph W6.9 kmh W 11.0 mph17.7 kmh 29.81 in1009.5 mb 0.41 in10.4 mm 0.00 in0.0 mm 2.49 in63.2 mm
10:10 AM 58.1°F14.5°C 57.8°F14.3°C 99% 1.4 mph WSW2.3 kmh WSW 11.0 mph17.7 kmh 29.81 in1009.5 mb 0.42 in10.7 mm 0.12 in3.0 mm 2.52 in64.0 mm
10:15 AM 58.3°F14.6°C 58.0°F14.4°C 99% 1.7 mph NW2.7 kmh NW 11.0 mph17.7 kmh 29.80 in1009.1 mb 0.43 in10.9 mm 0.12 in3.0 mm 2.54 in64.5 mm
10:20 AM 59.0°F15.0°C 58.7°F14.8°C 99% 1.0 mph SSE1.6 kmh SSE 11.0 mph17.7 kmh 29.80 in1009.1 mb 0.41 in10.4 mm 0.00 in0.0 mm 2.55 in64.8 mm
10:25 AM 58.9°F14.9°C 58.6°F14.8°C 99% Calm Calm 6.0 mph9.7 kmh 29.80 in1009.1 mb 0.37 in9.4 mm 0.00 in0.0 mm 2.55 in64.8 mm
10:30 AM 58.6°F14.8°C 58.3°F14.6°C 99% Calm Calm 6.0 mph9.7 kmh 29.81 in1009.5 mb 0.31 in7.9 mm 0.00 in0.0 mm 2.56 in65.0 mm
10:34 AM 58.9°F14.9°C 58.6°F14.8°C 99% 1.0 mph SW1.6 kmh SW 2.0 mph3.2 kmh 29.81 in1009.5 mb 0.24 in6.1 mm 0.00 in0.0 mm 2.56 in65.0 mm
10:39 AM 59.0°F15.0°C 58.7°F14.8°C 99% 1.3 mph SW2.1 kmh SW 2.0 mph3.2 kmh 29.81 in1009.5 mb 0.18 in4.6 mm 0.00 in0.0 mm 2.56 in65.0 mm
10:44 AM 59.1°F15.1°C 58.8°F14.9°C 99% 1.1 mph SE1.8 kmh SE 2.0 mph3.2 kmh 29.81 in1009.5 mb 0.16 in4.1 mm 0.00 in0.0 mm 2.57 in65.3 mm
10:49 AM 59.6°F15.3°C 59.3°F15.2°C 99% 1.8 mph S2.9 kmh S 4.0 mph6.4 kmh 29.81 in1009.5 mb 0.14 in3.6 mm 0.00 in0.0 mm 2.57 in65.3 mm
10:54 AM 60.3°F15.7°C 60.0°F15.6°C 99% 2.8 mph S4.5 kmh S 6.0 mph9.7 kmh 29.81 in1009.5 mb 0.13 in3.3 mm 0.00 in0.0 mm 2.57 in65.3 mm
10:59 AM 60.9°F16.1°C 60.6°F15.9°C 99% 3.5 mph SSW5.6 kmh SSW 9.0 mph14.5 kmh 29.81 in1009.5 mb 0.11 in2.8 mm 0.00 in0.0 mm 2.57 in65.3 mm
11:04 AM 61.1°F16.2°C 60.8°F16.0°C 99% 3.3 mph SW5.3 kmh SW 13.0 mph20.9 kmh 29.81 in1009.5 mb 0.09 in2.3 mm 0.00 in0.0 mm 2.57 in65.3 mm
11:09 AM 61.4°F16.3°C 61.1°F16.2°C 99% 4.4 mph SSW7.1 kmh SSW 13.0 mph20.9 kmh 29.81 in1009.5 mb 0.05 in1.3 mm 0.00 in0.0 mm 2.57 in65.3 mm
11:14 AM 61.5°F16.4°C 61.2°F16.2°C 99% 3.8 mph SW6.1 kmh SW 13.0 mph20.9 kmh 29.81 in1009.5 mb 0.03 in0.8 mm 0.00 in0.0 mm 2.57 in65.3 mm
11:19 AM 61.7°F16.5°C 61.4°F16.3°C 99% 3.8 mph SW6.1 kmh SW 13.0 mph20.9 kmh 29.81 in1009.5 mb 0.03 in0.8 mm 0.00 in0.0 mm 2.57 in65.3 mm
11:24 AM 61.9°F16.6°C 61.6°F16.4°C 99% 4.4 mph SW7.1 kmh SW 10.0 mph16.1 kmh 29.81 in1009.5 mb 0.02 in0.5 mm 0.00 in0.0 mm 2.57 in65.3 mm
11:29 AM 62.0°F16.7°C 61.7°F16.5°C 99% 4.5 mph SSW7.2 kmh SSW 12.0 mph19.3 kmh 29.80 in1009.1 mb 0.01 in0.3 mm 0.00 in0.0 mm 2.57 in65.3 mm
11:34 AM 62.1°F16.7°C 61.8°F16.6°C 99% 6.2 mph SW10.0 kmh SW 15.0 mph24.1 kmh 29.80 in1009.1 mb 0.01 in0.3 mm 0.00 in0.0 mm 2.57 in65.3 mm
11:39 AM 62.1°F16.7°C 61.8°F16.6°C 99% 4.5 mph SW7.2 kmh SW 15.0 mph24.1 kmh 29.81 in1009.5 mb 0.01 in0.3 mm 0.00 in0.0 mm 2.57 in65.3 mm
11:44 AM 62.2°F16.8°C 61.9°F16.6°C 99% 4.7 mph SW7.6 kmh SW 15.0 mph24.1 kmh 29.80 in1009.1 mb 0.00 in0.0 mm 0.00 in0.0 mm 2.57 in65.3 mm
11:49 AM 62.3°F16.8°C 62.0°F16.7°C 99% 4.0 mph SW6.4 kmh SW 11.0 mph17.7 kmh 29.80 in1009.1 mb 0.00 in0.0 mm 0.00 in0.0 mm 2.57 in65.3 mm
11:54 AM 62.4°F16.9°C 62.1°F16.7°C 99% 3.4 mph SSW5.5 kmh SSW 11.0 mph17.7 kmh 29.79 in1008.8 mb 0.00 in0.0 mm 0.00 in0.0 mm 2.57 in65.3 mm
11:59 AM 62.5°F16.9°C 62.2°F16.8°C 99% 3.3 mph SSW5.3 kmh SSW 10.0 mph16.1 kmh 29.78 in1008.5 mb 0.00 in0.0 mm 0.00 in0.0 mm 2.57 in65.3 mm
12:04 PM 62.5°F16.9°C 62.2°F16.8°C 99% 3.3 mph SSW5.3 kmh SSW 10.0 mph16.1 kmh 29.78 in1008.5 mb 0.00 in0.0 mm 0.00 in0.0 mm 2.57 in65.3 mm
12:09 PM 62.5°F16.9°C 62.2°F16.8°C 99% 3.9 mph SW6.3 kmh SW 9.0 mph14.5 kmh 29.78 in1008.5 mb 0.00 in0.0 mm 0.00 in0.0 mm 2.57 in65.3 mm
12:14 PM 62.6°F17.0°C 62.3°F16.8°C 99% 4.3 mph SW6.9 kmh SW 9.0 mph14.5 kmh 29.78 in1008.5 mb 0.00 in0.0 mm 0.00 in0.0 mm 2.57 in65.3 mm
12:19 PM 62.6°F17.0°C 62.3°F16.8°C 99% 6.1 mph SW9.8 kmh SW 16.0 mph25.7 kmh 29.78 in1008.5 mb 0.00 in0.0 mm 0.00 in0.0 mm 2.57 in65.3 mm
12:24 PM 62.7°F17.1°C 62.4°F16.9°C 99% 3.9 mph SSW6.3 kmh SSW 16.0 mph25.7 kmh 29.77 in1008.1 mb 0.00 in0.0 mm 0.00 in0.0 mm 2.57 in65.3 mm
12:29 PM 62.7°F17.1°C 62.4°F16.9°C 99% 4.0 mph SW6.4 kmh SW 16.0 mph25.7 kmh 29.78 in1008.5 mb 0.00 in0.0 mm 0.00 in0.0 mm 2.57 in65.3 mm
12:34 PM 62.9°F17.2°C 62.6°F17.0°C 99% 2.4 mph SW3.9 kmh SW 16.0 mph25.7 kmh 29.77 in1008.1 mb 0.00 in0.0 mm 0.00 in0.0 mm 2.57 in65.3 mm
12:39 PM 62.9°F17.2°C 62.6°F17.0°C 99% 4.9 mph SSW7.9 kmh SSW 11.0 mph17.7 kmh 29.77 in1008.1 mb 0.00 in0.0 mm 0.00 in0.0 mm 2.57 in65.3 mm
12:44 PM 62.9°F17.2°C 62.6°F17.0°C 99% 6.7 mph SSW10.8 kmh SSW 16.0 mph25.7 kmh 29.77 in1008.1 mb 0.00 in0.0 mm 0.00 in0.0 mm 2.57 in65.3 mm
12:49 PM 62.9°F17.2°C 62.6°F17.0°C 99% 6.4 mph SSW10.3 kmh SSW 16.0 mph25.7 kmh 29.76 in1007.8 mb 0.00 in0.0 mm 0.00 in0.0 mm 2.57 in65.3 mm
12:54 PM 63.0°F17.2°C 62.7°F17.1°C 99% 8.1 mph SW13.0 kmh SW 16.0 mph25.7 kmh 29.76 in1007.8 mb 0.00 in0.0 mm 0.00 in0.0 mm 2.57 in65.3 mm
12:59 PM 63.1°F17.3°C 62.5°F16.9°C 98% 4.8 mph SSW7.7 kmh SSW 16.0 mph25.7 kmh 29.76 in1007.8 mb 0.01 in0.3 mm 0.12 in3.0 mm 2.58 in65.5 mm
01:04 PM 63.2°F17.3°C 62.3°F16.8°C 97% 3.9 mph SW6.3 kmh SW 16.0 mph25.7 kmh 29.76 in1007.8 mb 0.01 in0.3 mm 0.00 in0.0 mm 2.58 in65.5 mm
01:09 PM 63.3°F17.4°C 61.8°F16.6°C 95% 8.0 mph SW12.9 kmh SW 16.0 mph25.7 kmh 29.76 in1007.8 mb 0.01 in0.3 mm 0.00 in0.0 mm 2.58 in65.5 mm
01:14 PM 63.3°F17.4°C 61.8°F16.6°C 95% 5.0 mph SW8.0 kmh SW 15.0 mph24.1 kmh 29.75 in1007.5 mb 0.01 in0.3 mm 0.00 in0.0 mm 2.58 in65.5 mm
01:19 PM 63.3°F17.4°C 61.5°F16.4°C 94% 5.5 mph SW8.9 kmh SW 14.0 mph22.5 kmh 29.75 in1007.5 mb 0.01 in0.3 mm 0.00 in0.0 mm 2.58 in65.5 mm
01:24 PM 63.3°F17.4°C 61.5°F16.4°C 94% 5.5 mph SW8.9 kmh SW 14.0 mph22.5 kmh 29.75 in1007.5 mb 0.01 in0.3 mm 0.00 in0.0 mm 2.58 in65.5 mm
01:29 PM 63.4°F17.4°C 61.6°F16.4°C 94% 3.9 mph SW6.3 kmh SW 13.0 mph20.9 kmh 29.74 in1007.1 mb 0.01 in0.3 mm 0.00 in0.0 mm 2.58 in65.5 mm
01:34 PM 63.4°F17.4°C 61.6°F16.4°C 94% 4.7 mph SW7.6 kmh SW 13.0 mph20.9 kmh 29.74 in1007.1 mb 0.01 in0.3 mm 0.00 in0.0 mm 2.58 in65.5 mm
01:39 PM 63.4°F17.4°C 61.3°F16.3°C 93% 4.4 mph SW7.1 kmh SW 13.0 mph20.9 kmh 29.74 in1007.1 mb 0.01 in0.3 mm 0.00 in0.0 mm 2.58 in65.5 mm
01:44 PM 63.4°F17.4°C 61.3°F16.3°C 93% 5.8 mph SW9.3 kmh SW 12.0 mph19.3 kmh 29.74 in1007.1 mb 0.01 in0.3 mm 0.00 in0.0 mm 2.58 in65.5 mm
01:49 PM 63.4°F17.4°C 61.0°F16.1°C 92% 5.0 mph SW8.0 kmh SW 13.0 mph20.9 kmh 29.73 in1006.8 mb 0.01 in0.3 mm 0.00 in0.0 mm 2.58 in65.5 mm
01:54 PM 63.3°F17.4°C 60.9°F16.1°C 92% 3.9 mph SW6.3 kmh SW 13.0 mph20.9 kmh 29.73 in1006.8 mb 0.01 in0.3 mm 0.00 in0.0 mm 2.58 in65.5 mm
01:59 PM 63.3°F17.4°C 61.2°F16.2°C 93% 2.6 mph SW4.2 kmh SW 13.0 mph20.9 kmh 29.73 in1006.8 mb 0.00 in0.0 mm 0.00 in0.0 mm 2.58 in65.5 mm
02:04 PM 63.4°F17.4°C 61.3°F16.3°C 93% 1.4 mph SW2.3 kmh SW 13.0 mph20.9 kmh 29.72 in1006.4 mb 0.00 in0.0 mm 0.00 in0.0 mm 2.58 in65.5 mm
02:09 PM 63.4°F17.4°C 61.0°F16.1°C 92% 4.6 mph SW7.4 kmh SW 12.0 mph19.3 kmh 29.71 in1006.1 mb 0.00 in0.0 mm 0.00 in0.0 mm 2.58 in65.5 mm
02:14 PM 63.5°F17.5°C 61.1°F16.2°C 92% 6.1 mph SW9.8 kmh SW 12.0 mph19.3 kmh 29.71 in1006.1 mb 0.00 in0.0 mm 0.00 in0.0 mm 2.58 in65.5 mm
02:19 PM 63.7°F17.6°C 61.3°F16.3°C 92% 5.3 mph SSW8.5 kmh SSW 12.0 mph19.3 kmh 29.70 in1005.8 mb 0.00 in0.0 mm 0.00 in0.0 mm 2.58 in65.5 mm
02:24 PM 63.9°F17.7°C 61.2°F16.2°C 91% 6.4 mph SSW10.3 kmh SSW 13.0 mph20.9 kmh 29.71 in1006.1 mb 0.00 in0.0 mm 0.00 in0.0 mm 2.58 in65.5 mm
02:29 PM 64.4°F18.0°C 61.7°F16.5°C 91% 2.2 mph SW3.5 kmh SW 13.0 mph20.9 kmh 29.71 in1006.1 mb 0.00 in0.0 mm 0.00 in0.0 mm 2.58 in65.5 mm
02:34 PM 64.4°F18.0°C 60.8°F16.0°C 88% 7.3 mph SW11.7 kmh SW 21.0 mph33.8 kmh 29.71 in1006.1 mb 0.00 in0.0 mm 0.00 in0.0 mm 2.58 in65.5 mm
02:39 PM 64.4°F18.0°C 60.8°F16.0°C 88% 6.8 mph SW10.9 kmh SW 21.0 mph33.8 kmh 29.71 in1006.1 mb 0.00 in0.0 mm 0.00 in0.0 mm 2.58 in65.5 mm
02:44 PM 64.5°F18.1°C 60.9°F16.1°C 88% 3.9 mph SSW6.3 kmh SSW 21.0 mph33.8 kmh 29.70 in1005.8 mb 0.00 in0.0 mm 0.00 in0.0 mm 2.58 in65.5 mm
02:49 PM 64.4°F18.0°C 60.8°F16.0°C 88% 5.0 mph SW8.0 kmh SW 19.0 mph30.6 kmh 29.70 in1005.8 mb 0.00 in0.0 mm 0.00 in0.0 mm 2.58 in65.5 mm
02:54 PM 64.3°F17.9°C 60.7°F15.9°C 88% 4.1 mph SSW6.6 kmh SSW 19.0 mph30.6 kmh 29.70 in1005.8 mb 0.00 in0.0 mm 0.00 in0.0 mm 2.58 in65.5 mm
02:59 PM 64.2°F17.9°C 60.6°F15.9°C 88% 7.0 mph SSW11.3 kmh SSW 15.0 mph24.1 kmh 29.70 in1005.8 mb 0.00 in0.0 mm 0.00 in0.0 mm 2.58 in65.5 mm
03:04 PM 64.1°F17.8°C 60.1°F15.6°C 87% 6.1 mph SW9.8 kmh SW 15.0 mph24.1 kmh 29.70 in1005.8 mb 0.00 in0.0 mm 0.00 in0.0 mm 2.58 in65.5 mm
03:09 PM 64.0°F17.8°C 59.7°F15.4°C 86% 6.6 mph SSW10.6 kmh SSW 15.0 mph24.1 kmh 29.69 in1005.4 mb 0.00 in0.0 mm 0.00 in0.0 mm 2.58 in65.5 mm
03:14 PM 63.9°F17.7°C 59.3°F15.2°C 85% 7.9 mph SW12.7 kmh SW 15.0 mph24.1 kmh 29.69 in1005.4 mb 0.00 in0.0 mm 0.00 in0.0 mm 2.58 in65.5 mm
03:19 PM 63.9°F17.7°C 59.6°F15.3°C 86% 5.5 mph SW8.9 kmh SW 15.0 mph24.1 kmh 29.69 in1005.4 mb 0.00 in0.0 mm 0.00 in0.0 mm 2.58 in65.5 mm
03:24 PM 63.8°F17.7°C 59.5°F15.3°C 86% 5.6 mph SSW9.0 kmh SSW 15.0 mph24.1 kmh 29.69 in1005.4 mb 0.00 in0.0 mm 0.00 in0.0 mm 2.58 in65.5 mm
03:29 PM 63.8°F17.7°C 58.9°F14.9°C 84% 6.1 mph SSW9.8 kmh SSW 18.0 mph29.0 kmh 29.69 in1005.4 mb 0.00 in0.0 mm 0.00 in0.0 mm 2.58 in65.5 mm
03:34 PM 63.8°F17.7°C 58.6°F14.8°C 83% 8.8 mph SW14.2 kmh SW 18.0 mph29.0 kmh 29.68 in1005.1 mb 0.00 in0.0 mm 0.00 in0.0 mm 2.58 in65.5 mm
03:38 PM 64.0°F17.8°C 58.4°F14.7°C 82% 6.5 mph SSW10.5 kmh SSW 18.0 mph29.0 kmh 29.68 in1005.1 mb 0.00 in0.0 mm 0.00 in0.0 mm 2.58 in65.5 mm
03:43 PM 64.2°F17.9°C 58.6°F14.8°C 82% 6.0 mph SW9.7 kmh SW 18.0 mph29.0 kmh 29.68 in1005.1 mb 0.00 in0.0 mm 0.00 in0.0 mm 2.58 in65.5 mm
03:48 PM 64.4°F18.0°C 58.8°F14.9°C 82% 4.6 mph S7.4 kmh S 17.0 mph27.4 kmh 29.68 in1005.1 mb 0.00 in0.0 mm 0.00 in0.0 mm 2.58 in65.5 mm
03:53 PM 64.3°F17.9°C 59.1°F15.1°C 83% 3.6 mph S5.8 kmh S 16.0 mph25.7 kmh 29.67 in1004.7 mb 0.00 in0.0 mm 0.00 in0.0 mm 2.58 in65.5 mm
03:58 PM 64.0°F17.8°C 58.8°F14.9°C 83% 4.9 mph S7.9 kmh S 12.0 mph19.3 kmh 29.67 in1004.7 mb 0.00 in0.0 mm 0.00 in0.0 mm 2.58 in65.5 mm
04:03 PM 63.8°F17.7°C 57.9°F14.4°C 81% 8.7 mph SSW14.0 kmh SSW 19.0 mph30.6 kmh 29.67 in1004.7 mb 0.00 in0.0 mm 0.00 in0.0 mm 2.58 in65.5 mm
04:08 PM 63.7°F17.6°C 58.1°F14.5°C 82% 4.5 mph S7.2 kmh S 19.0 mph30.6 kmh 29.67 in1004.7 mb 0.00 in0.0 mm 0.00 in0.0 mm 2.58 in65.5 mm
04:13 PM 63.6°F17.6°C 57.7°F14.3°C 81% 7.4 mph SSW11.9 kmh SSW 19.0 mph30.6 kmh 29.67 in1004.7 mb 0.00 in0.0 mm 0.00 in0.0 mm 2.58 in65.5 mm
04:18 PM 63.7°F17.6°C 58.1°F14.5°C 82% 5.4 mph SSW8.7 kmh SSW 19.0 mph30.6 kmh 29.67 in1004.7 mb 0.00 in0.0 mm 0.00 in0.0 mm 2.58 in65.5 mm
04:23 PM 63.9°F17.7°C 58.0°F14.4°C 81% 4.6 mph SW7.4 kmh SW 16.0 mph25.7 kmh 29.68 in1005.1 mb 0.00 in0.0 mm 0.00 in0.0 mm 2.58 in65.5 mm
04:28 PM 64.2°F17.9°C 58.2°F14.6°C 81% 3.8 mph SW6.1 kmh SW 15.0 mph24.1 kmh 29.68 in1005.1 mb 0.00 in0.0 mm 0.00 in0.0 mm 2.58 in65.5 mm
04:33 PM 64.6°F18.1°C 57.9°F14.4°C 79% 5.0 mph SSW8.0 kmh SSW 17.0 mph27.4 kmh 29.68 in1005.1 mb 0.00 in0.0 mm 0.00 in0.0 mm 2.58 in65.5 mm
04:38 PM 64.7°F18.2°C 57.3°F14.1°C 77% 10.8 mph SW17.4 kmh SW 20.0 mph32.2 kmh 29.68 in1005.1 mb 0.00 in0.0 mm 0.00 in0.0 mm 2.58 in65.5 mm
04:43 PM 64.5°F18.1°C 57.6°F14.2°C 78% 7.9 mph SSW12.7 kmh SSW 20.0 mph32.2 kmh 29.68 in1005.1 mb 0.00 in0.0 mm 0.00 in0.0 mm 2.58 in65.5 mm
04:48 PM 64.3°F17.9°C 57.4°F14.1°C 78% 5.0 mph SW8.0 kmh SW 20.0 mph32.2 kmh 29.68 in1005.1 mb 0.00 in0.0 mm 0.00 in0.0 mm 2.58 in65.5 mm
04:53 PM 64.2°F17.9°C 56.9°F13.8°C 77% 5.3 mph S8.5 kmh S 20.0 mph32.2 kmh 29.68 in1005.1 mb 0.00 in0.0 mm 0.00 in0.0 mm 2.58 in65.5 mm
04:58 PM 64.0°F17.8°C 57.1°F13.9°C 78% 6.2 mph SSW10.0 kmh SSW 15.0 mph24.1 kmh 29.68 in1005.1 mb 0.00 in0.0 mm 0.00 in0.0 mm 2.58 in65.5 mm
05:04 PM 63.8°F17.7°C 56.9°F13.8°C 78% 8.6 mph SW13.8 kmh SW 16.0 mph25.7 kmh 29.68 in1005.1 mb 0.00 in0.0 mm 0.00 in0.0 mm 2.58 in65.5 mm
05:09 PM 63.7°F17.6°C 56.4°F13.6°C 77% 4.5 mph SW7.2 kmh SW 16.0 mph25.7 kmh 29.69 in1005.4 mb 0.00 in0.0 mm 0.00 in0.0 mm 2.58 in65.5 mm
05:13 PM 63.7°F17.6°C 56.4°F13.6°C 77% 9.3 mph SW15.0 kmh SW 16.0 mph25.7 kmh 29.69 in1005.4 mb 0.00 in0.0 mm 0.00 in0.0 mm 2.58 in65.5 mm
05:18 PM 63.8°F17.7°C 56.2°F13.4°C 76% 8.9 mph SW14.3 kmh SW 15.0 mph24.1 kmh 29.69 in1005.4 mb 0.00 in0.0 mm 0.00 in0.0 mm 2.58 in65.5 mm
05:24 PM 63.5°F17.5°C 55.5°F13.1°C 75% 11.5 mph SW18.5 kmh SW 21.0 mph33.8 kmh 29.68 in1005.1 mb 0.00 in0.0 mm 0.00 in0.0 mm 2.58 in65.5 mm
05:29 PM 63.3°F17.4°C 55.7°F13.2°C 76% 7.2 mph SW11.6 kmh SW 21.0 mph33.8 kmh 29.68 in1005.1 mb 0.00 in0.0 mm 0.00 in0.0 mm 2.58 in65.5 mm
05:34 PM 63.3°F17.4°C 55.4°F13.0°C 75% 6.6 mph SW10.6 kmh SW 21.0 mph33.8 kmh 29.68 in1005.1 mb 0.00 in0.0 mm 0.00 in0.0 mm 2.58 in65.5 mm
05:38 PM 63.1°F17.3°C 55.2°F12.9°C 75% 8.1 mph SW13.0 kmh SW 21.0 mph33.8 kmh 29.67 in1004.7 mb 0.00 in0.0 mm 0.00 in0.0 mm 2.58 in65.5 mm
05:44 PM 63.0°F17.2°C 55.1°F12.8°C 75% 10.3 mph SW16.6 kmh SW 17.0 mph27.4 kmh 29.67 in1004.7 mb 0.00 in0.0 mm 0.00 in0.0 mm 2.58 in65.5 mm
05:49 PM 62.8°F17.1°C 55.2°F12.9°C 76% 4.5 mph SW7.2 kmh SW 17.0 mph27.4 kmh 29.67 in1004.7 mb 0.00 in0.0 mm 0.00 in0.0 mm 2.58 in65.5 mm
05:54 PM 62.6°F17.0°C 54.7°F12.6°C 75% 10.4 mph SW16.7 kmh SW 20.0 mph32.2 kmh 29.68 in1005.1 mb 0.00 in0.0 mm 0.00 in0.0 mm 2.58 in65.5 mm
05:59 PM 62.4°F16.9°C 54.8°F12.7°C 76% 5.8 mph SW9.3 kmh SW 20.0 mph32.2 kmh 29.68 in1005.1 mb 0.00 in0.0 mm 0.00 in0.0 mm 2.58 in65.5 mm
06:04 PM 62.3°F16.8°C 54.7°F12.6°C 76% 3.8 mph SW6.1 kmh SW 20.0 mph32.2 kmh 29.68 in1005.1 mb 0.00 in0.0 mm 0.00 in0.0 mm 2.58 in65.5 mm
06:09 PM 62.3°F16.8°C 54.7°F12.6°C 76% 6.0 mph SW9.7 kmh SW 20.0 mph32.2 kmh 29.69 in1005.4 mb 0.00 in0.0 mm 0.00 in0.0 mm 2.58 in65.5 mm
06:14 PM 62.5°F16.9°C 54.6°F12.6°C 75% 7.5 mph SW12.1 kmh SW 14.0 mph22.5 kmh 29.69 in1005.4 mb 0.00 in0.0 mm 0.00 in0.0 mm 2.58 in65.5 mm
06:18 PM 62.5°F16.9°C 53.5°F11.9°C 72% 9.5 mph SW15.3 kmh SW 18.0 mph29.0 kmh 29.69 in1005.4 mb 0.00 in0.0 mm 0.00 in0.0 mm 2.58 in65.5 mm
06:24 PM 62.5°F16.9°C 52.6°F11.4°C 70% 10.4 mph SW16.7 kmh SW 19.0 mph30.6 kmh 29.69 in1005.4 mb 0.00 in0.0 mm 0.00 in0.0 mm 2.58 in65.5 mm
06:29 PM 62.4°F16.9°C 51.9°F11.1°C 68% 6.7 mph SW10.8 kmh SW 19.0 mph30.6 kmh 29.70 in1005.8 mb 0.00 in0.0 mm 0.00 in0.0 mm 2.58 in65.5 mm
06:34 PM 62.2°F16.8°C 50.9°F10.5°C 66% 5.5 mph SW8.9 kmh SW 19.0 mph30.6 kmh 29.70 in1005.8 mb 0.00 in0.0 mm 0.00 in0.0 mm 2.58 in65.5 mm
06:39 PM 61.9°F16.6°C 50.0°F10.0°C 65% 8.5 mph SW13.7 kmh SW 19.0 mph30.6 kmh 29.70 in1005.8 mb 0.00 in0.0 mm 0.00 in0.0 mm 2.58 in65.5 mm
06:44 PM 61.7°F16.5°C 48.1°F8.9°C 61% 10.3 mph SW16.6 kmh SW 19.0 mph30.6 kmh 29.71 in1006.1 mb 0.00 in0.0 mm 0.00 in0.0 mm 2.58 in65.5 mm
06:49 PM 61.3°F16.3°C 48.2°F9.0°C 62% 8.9 mph WSW14.3 kmh WSW 19.0 mph30.6 kmh 29.71 in1006.1 mb 0.00 in0.0 mm 0.00 in0.0 mm 2.58 in65.5 mm
06:54 PM 60.8°F16.0°C 49.4°F9.7°C 66% 9.1 mph WSW14.6 kmh WSW 23.0 mph37.0 kmh 29.71 in1006.1 mb 0.00 in0.0 mm 0.00 in0.0 mm 2.58 in65.5 mm
06:59 PM 60.1°F15.6°C 50.4°F10.2°C 70% 7.2 mph WSW11.6 kmh WSW 23.0 mph37.0 kmh 29.72 in1006.4 mb 0.00 in0.0 mm 0.00 in0.0 mm 2.58 in65.5 mm
07:04 PM 59.4°F15.2°C 48.6°F9.2°C 67% 12.6 mph WSW20.3 kmh WSW 23.0 mph37.0 kmh 29.73 in1006.8 mb 0.00 in0.0 mm 0.00 in0.0 mm 2.58 in65.5 mm
07:09 PM 58.8°F14.9°C 46.6°F8.1°C 64% 14.0 mph WSW22.5 kmh WSW 26.0 mph41.8 kmh 29.73 in1006.8 mb 0.00 in0.0 mm 0.00 in0.0 mm 2.58 in65.5 mm
07:14 PM 58.4°F14.7°C 45.8°F7.7°C 63% 8.9 mph WSW14.3 kmh WSW 26.0 mph41.8 kmh 29.73 in1006.8 mb 0.00 in0.0 mm 0.00 in0.0 mm 2.58 in65.5 mm
07:19 PM 58.0°F14.4°C 46.3°F7.9°C 65% 4.7 mph WSW7.6 kmh WSW 26.0 mph41.8 kmh 29.74 in1007.1 mb 0.00 in0.0 mm 0.00 in0.0 mm 2.58 in65.5 mm
07:24 PM 57.6°F14.2°C 46.7°F8.2°C 67% 6.9 mph WSW11.1 kmh WSW 26.0 mph41.8 kmh 29.74 in1007.1 mb 0.00 in0.0 mm 0.00 in0.0 mm 2.58 in65.5 mm
07:29 PM 57.2°F14.0°C 46.7°F8.2°C 68% 6.5 mph WSW10.5 kmh WSW 22.0 mph35.4 kmh 29.74 in1007.1 mb 0.00 in0.0 mm 0.00 in0.0 mm 2.58 in65.5 mm
07:34 PM 56.9°F13.8°C 46.4°F8.0°C 68% 6.0 mph WSW9.7 kmh WSW 21.0 mph33.8 kmh 29.74 in1007.1 mb 0.00 in0.0 mm 0.00 in0.0 mm 2.58 in65.5 mm
07:39 PM 56.6°F13.7°C 46.3°F7.9°C 68% 6.3 mph WSW10.1 kmh WSW 21.0 mph33.8 kmh 29.74 in1007.1 mb 0.00 in0.0 mm 0.00 in0.0 mm 2.58 in65.5 mm
07:44 PM 56.2°F13.4°C 45.9°F7.7°C 68% 4.6 mph WSW7.4 kmh WSW 18.0 mph29.0 kmh 29.75 in1007.5 mb 0.00 in0.0 mm 0.00 in0.0 mm 2.58 in65.5 mm
07:49 PM 56.0°F13.3°C 45.7°F7.6°C 68% 4.0 mph WSW6.4 kmh WSW 15.0 mph24.1 kmh 29.75 in1007.5 mb 0.00 in0.0 mm 0.00 in0.0 mm 2.58 in65.5 mm
07:54 PM 55.7°F13.2°C 45.0°F7.2°C 67% 5.9 mph WSW9.5 kmh WSW 15.0 mph24.1 kmh 29.75 in1007.5 mb 0.00 in0.0 mm 0.00 in0.0 mm 2.58 in65.5 mm
07:59 PM 55.4°F13.0°C 44.8°F7.1°C 67% 4.7 mph WSW7.6 kmh WSW 14.0 mph22.5 kmh 29.75 in1007.5 mb 0.00 in0.0 mm 0.00 in0.0 mm 2.58 in65.5 mm
08:04 PM 55.2°F12.9°C 44.6°F7.0°C 67% 4.6 mph WSW7.4 kmh WSW 19.0 mph30.6 kmh 29.76 in1007.8 mb 0.00 in0.0 mm 0.00 in0.0 mm 2.58 in65.5 mm
08:09 PM 54.9°F12.7°C 44.3°F6.8°C 67% 8.0 mph WSW12.9 kmh WSW 19.0 mph30.6 kmh 29.76 in1007.8 mb 0.00 in0.0 mm 0.00 in0.0 mm 2.58 in65.5 mm
08:14 PM 54.7°F12.6°C 44.1°F6.7°C 67% 6.4 mph WSW10.3 kmh WSW 19.0 mph30.6 kmh 29.77 in1008.1 mb 0.00 in0.0 mm 0.00 in0.0 mm 2.58 in65.5 mm
08:19 PM 54.4°F12.4°C 44.2°F6.8°C 68% 6.0 mph WSW9.7 kmh WSW 19.0 mph30.6 kmh 29.77 in1008.1 mb 0.00 in0.0 mm 0.00 in0.0 mm 2.58 in65.5 mm
08:24 PM 54.0°F12.2°C 43.8°F6.6°C 68% 5.4 mph WSW8.7 kmh WSW 16.0 mph25.7 kmh 29.77 in1008.1 mb 0.00 in0.0 mm 0.00 in0.0 mm 2.58 in65.5 mm
08:29 PM 53.7°F12.1°C 43.5°F6.4°C 68% 3.9 mph WSW6.3 kmh WSW 14.0 mph22.5 kmh 29.78 in1008.5 mb 0.00 in0.0 mm 0.00 in0.0 mm 2.58 in65.5 mm
08:33 PM 53.3°F11.8°C 43.5°F6.4°C 69% 4.5 mph W7.2 kmh W 19.0 mph30.6 kmh 29.78 in1008.5 mb 0.00 in0.0 mm 0.00 in0.0 mm 2.58 in65.5 mm
08:38 PM 52.9°F11.6°C 41.6°F5.3°C 65% 8.2 mph WSW13.2 kmh WSW 19.0 mph30.6 kmh 29.78 in1008.5 mb 0.00 in0.0 mm 0.00 in0.0 mm 2.58 in65.5 mm
08:43 PM 52.6°F11.4°C 41.3°F5.2°C 65% 8.4 mph W13.5 kmh W 20.0 mph32.2 kmh 29.79 in1008.8 mb 0.00 in0.0 mm 0.00 in0.0 mm 2.58 in65.5 mm
08:48 PM 52.3°F11.3°C 41.0°F5.0°C 65% 7.4 mph WSW11.9 kmh WSW 21.0 mph33.8 kmh 29.79 in1008.8 mb 0.00 in0.0 mm 0.00 in0.0 mm 2.58 in65.5 mm
08:53 PM 52.1°F11.2°C 40.7°F4.8°C 65% 8.2 mph WSW13.2 kmh WSW 21.0 mph33.8 kmh 29.79 in1008.8 mb 0.00 in0.0 mm 0.00 in0.0 mm 2.58 in65.5 mm
08:58 PM 51.8°F11.0°C 41.2°F5.1°C 67% 4.0 mph W6.4 kmh W 21.0 mph33.8 kmh 29.80 in1009.1 mb 0.00 in0.0 mm 0.00 in0.0 mm 2.58 in65.5 mm
09:03 PM 51.5°F10.8°C 40.5°F4.7°C 66% 6.1 mph WSW9.8 kmh WSW 21.0 mph33.8 kmh 29.80 in1009.1 mb 0.00 in0.0 mm 0.00 in0.0 mm 2.58 in65.5 mm
09:08 PM 51.4°F10.8°C 40.8°F4.9°C 67% 4.5 mph WSW7.2 kmh WSW 22.0 mph35.4 kmh 29.80 in1009.1 mb 0.00 in0.0 mm 0.00 in0.0 mm 2.58 in65.5 mm
09:13 PM 51.3°F10.7°C 40.7°F4.8°C 67% 7.6 mph WSW12.2 kmh WSW 22.0 mph35.4 kmh 29.80 in1009.1 mb 0.00 in0.0 mm 0.00 in0.0 mm 2.58 in65.5 mm
09:18 PM 51.1°F10.6°C 40.6°F4.8°C 67% 9.1 mph WSW14.6 kmh WSW 22.0 mph35.4 kmh 29.80 in1009.1 mb 0.00 in0.0 mm 0.00 in0.0 mm 2.58 in65.5 mm
09:23 PM 50.9°F10.5°C 40.8°F4.9°C 68% 5.2 mph WSW8.4 kmh WSW 17.0 mph27.4 kmh 29.81 in1009.5 mb 0.00 in0.0 mm 0.00 in0.0 mm 2.58 in65.5 mm
09:28 PM 50.7°F10.4°C 41.0°F5.0°C 69% 6.7 mph WSW10.8 kmh WSW 17.0 mph27.4 kmh 29.81 in1009.5 mb 0.00 in0.0 mm 0.00 in0.0 mm 2.58 in65.5 mm
09:33 PM 50.5°F10.3°C 41.2°F5.1°C 70% 6.6 mph WSW10.6 kmh WSW 17.0 mph27.4 kmh 29.81 in1009.5 mb 0.00 in0.0 mm 0.00 in0.0 mm 2.58 in65.5 mm
09:38 PM 50.6°F10.3°C 40.9°F4.9°C 69% 6.4 mph WSW10.3 kmh WSW 17.0 mph27.4 kmh 29.82 in1009.8 mb 0.00 in0.0 mm 0.00 in0.0 mm 2.58 in65.5 mm
09:43 PM 50.6°F10.3°C 41.3°F5.2°C 70% 5.6 mph WSW9.0 kmh WSW 17.0 mph27.4 kmh 29.81 in1009.5 mb 0.00 in0.0 mm 0.00 in0.0 mm 2.58 in65.5 mm
09:48 PM 50.7°F10.4°C 41.4°F5.2°C 70% 5.7 mph WSW9.2 kmh WSW 17.0 mph27.4 kmh 29.82 in1009.8 mb 0.00 in0.0 mm 0.00 in0.0 mm 2.58 in65.5 mm
09:53 PM 50.7°F10.4°C 41.3°F5.2°C 70% 5.3 mph WSW8.5 kmh WSW 17.0 mph27.4 kmh 29.82 in1009.8 mb 0.00 in0.0 mm 0.00 in0.0 mm 2.58 in65.5 mm
09:58 PM 50.6°F10.3°C 41.6°F5.3°C 71% 5.0 mph WSW8.0 kmh WSW 17.0 mph27.4 kmh 29.82 in1009.8 mb 0.00 in0.0 mm 0.00 in0.0 mm 2.58 in65.5 mm
10:03 PM 50.6°F10.3°C 41.5°F5.3°C 71% 9.0 mph W14.5 kmh W 18.0 mph29.0 kmh 29.82 in1009.8 mb 0.00 in0.0 mm 0.00 in0.0 mm 2.58 in65.5 mm
10:08 PM 50.5°F10.3°C 41.4°F5.2°C 71% 7.0 mph WSW11.3 kmh WSW 20.0 mph32.2 kmh 29.83 in1010.2 mb 0.00 in0.0 mm 0.00 in0.0 mm 2.58 in65.5 mm
10:13 PM 50.5°F10.3°C 41.9°F5.5°C 72% 4.1 mph WSW6.6 kmh WSW 20.0 mph32.2 kmh 29.83 in1010.2 mb 0.00 in0.0 mm 0.00 in0.0 mm 2.58 in65.5 mm
10:18 PM 50.4°F10.2°C 41.8°F5.4°C 72% 5.3 mph W8.5 kmh W 20.0 mph32.2 kmh 29.83 in1010.2 mb 0.00 in0.0 mm 0.00 in0.0 mm 2.58 in65.5 mm
10:23 PM 50.3°F10.2°C 41.4°F5.2°C 71% 6.1 mph W9.8 kmh W 23.0 mph37.0 kmh 29.84 in1010.5 mb 0.00 in0.0 mm 0.00 in0.0 mm 2.58 in65.5 mm
10:28 PM 50.2°F10.1°C 41.3°F5.2°C 71% 6.4 mph W10.3 kmh W 23.0 mph37.0 kmh 29.84 in1010.5 mb 0.00 in0.0 mm 0.00 in0.0 mm 2.58 in65.5 mm
10:33 PM 50.1°F10.1°C 41.2°F5.1°C 71% 7.6 mph W12.2 kmh W 23.0 mph37.0 kmh 29.84 in1010.5 mb 0.00 in0.0 mm 0.00 in0.0 mm 2.58 in65.5 mm
10:38 PM 50.0°F10.0°C 41.1°F5.1°C 71% 5.5 mph WSW8.9 kmh WSW 23.0 mph37.0 kmh 29.84 in1010.5 mb 0.00 in0.0 mm 0.00 in0.0 mm 2.58 in65.5 mm
10:43 PM 50.0°F10.0°C 40.7°F4.8°C 70% 7.4 mph W11.9 kmh W 20.0 mph32.2 kmh 29.84 in1010.5 mb 0.00 in0.0 mm 0.00 in0.0 mm 2.58 in65.5 mm
10:48 PM 49.9°F9.9°C 40.2°F4.6°C 69% 7.6 mph W12.2 kmh W 20.0 mph32.2 kmh 29.84 in1010.5 mb 0.00 in0.0 mm 0.00 in0.0 mm 2.58 in65.5 mm
10:53 PM 49.9°F9.9°C 40.6°F4.8°C 70% 7.0 mph WSW11.3 kmh WSW 18.0 mph29.0 kmh 29.84 in1010.5 mb 0.00 in0.0 mm 0.00 in0.0 mm 2.58 in65.5 mm
10:58 PM 49.8°F9.9°C 40.4°F4.7°C 70% 6.3 mph WSW10.1 kmh WSW 17.0 mph27.4 kmh 29.84 in1010.5 mb 0.00 in0.0 mm 0.00 in0.0 mm 2.58 in65.5 mm
11:03 PM 49.7°F9.8°C 40.8°F4.9°C 71% 4.3 mph WSW6.9 kmh WSW 17.0 mph27.4 kmh 29.85 in1010.8 mb 0.00 in0.0 mm 0.00 in0.0 mm 2.58 in65.5 mm
11:08 PM 49.6°F9.8°C 40.7°F4.8°C 71% 5.2 mph WSW8.4 kmh WSW 17.0 mph27.4 kmh 29.85 in1010.8 mb 0.00 in0.0 mm 0.00 in0.0 mm 2.58 in65.5 mm
11:13 PM 49.5°F9.7°C 40.9°F4.9°C 72% 3.5 mph WSW5.6 kmh WSW 17.0 mph27.4 kmh 29.85 in1010.8 mb 0.00 in0.0 mm 0.00 in0.0 mm 2.58 in65.5 mm
11:18 PM 49.4°F9.7°C 40.4°F4.7°C 71% 5.5 mph WSW8.9 kmh WSW 17.0 mph27.4 kmh 29.85 in1010.8 mb 0.00 in0.0 mm 0.00 in0.0 mm 2.58 in65.5 mm
11:23 PM 49.2°F9.6°C 40.6°F4.8°C 72% 6.3 mph WSW10.1 kmh WSW 17.0 mph27.4 kmh 29.85 in1010.8 mb 0.00 in0.0 mm 0.00 in0.0 mm 2.58 in65.5 mm
11:28 PM 48.9°F9.4°C 40.7°F4.8°C 73% 3.1 mph WSW5.0 kmh WSW 13.0 mph20.9 kmh 29.86 in1011.2 mb 0.00 in0.0 mm 0.00 in0.0 mm 2.58 in65.5 mm
11:33 PM 48.7°F9.3°C 40.5°F4.7°C 73% 8.0 mph WSW12.9 kmh WSW 13.0 mph20.9 kmh 29.85 in1010.8 mb 0.00 in0.0 mm 0.00 in0.0 mm 2.58 in65.5 mm
11:38 PM 48.5°F9.2°C 40.6°F4.8°C 74% 3.4 mph W5.5 kmh W 13.0 mph20.9 kmh 29.85 in1010.8 mb 0.00 in0.0 mm 0.00 in0.0 mm 2.58 in65.5 mm
11:43 PM 48.2°F9.0°C 40.7°F4.8°C 75% 4.6 mph W7.4 kmh W 13.0 mph20.9 kmh 29.85 in1010.8 mb 0.00 in0.0 mm 0.00 in0.0 mm 2.58 in65.5 mm
11:48 PM 48.0°F8.9°C 40.9°F4.9°C 76% 5.0 mph W8.0 kmh W 13.0 mph20.9 kmh 29.85 in1010.8 mb 0.00 in0.0 mm 0.00 in0.0 mm 2.58 in65.5 mm
11:53 PM 47.7°F8.7°C 40.6°F4.8°C 76% 2.8 mph WSW4.5 kmh WSW 11.0 mph17.7 kmh 29.85 in1010.8 mb 0.00 in0.0 mm 0.00 in0.0 mm 2.58 in65.5 mm
11:58 PM 47.6°F8.7°C 40.8°F4.9°C 77% 4.8 mph WSW7.7 kmh WSW 12.0 mph19.3 kmh 29.85 in1010.8 mb 0.00 in0.0 mm 0.00 in0.0 mm 2.58 in65.5 mm